TAM8070 SBGR-EDDF
Flight info
| Callsign | TAM8070 |
|---|---|
| Flight time | N/A |
| Altitude | 31000 |
| Route | NUXEL UZ23 ILPIR UZ72 EDNES UN866 NIGTU/N0500F330 UN866 DEKON/N0494F340 UN866 AMDOL/N0488F330 UN866 IRANI/N0485F350 UN866 TENPA N866 GOMER/N0475F340 N866 BRICK/N0476F360 N866 KONBA UN866 BEXAL/N0416F240 UN872 ESP/N0471F360 DCT MAGUM/N0412F240 UN745 RIVRO/N0473F360 DCT ZMR N873 DELOG DCT PEXOD DCT DIDIG DCT TIRAV DCT ERJAZ DCT PIWIZ DCT TSU UM163 LEQOS DCT SUIPE DCT LUTAX/N0471F370 DCT DIK DCT IMCOM IMCOM1B |
| Aircraft | B77W/H-SDE2E3FGHIJ1J4J5M1RWXYZ/EB1D1 |
Departure
| Time | N/A |
|---|---|
| Airport | São Paulo/Guarulhos–Governor André Franco Montoro International Airport (SBGR) |
Arrival
| Time | 2026-05-07 15:42 |
|---|---|
| Airport | Frankfurt Main Airport (EDDF) |
| Time | Latitude | Longitude | Altitude | Speed | Heading |
|---|---|---|---|---|---|
| 2026-05-07 14:43 | 47.98958 | 0.75880 | 36012 ft | 476 kts | 44° |
| 2026-05-07 14:43 | 48.03619 | 0.82877 | 36018 ft | 476 kts | 44° |
| 2026-05-07 14:44 | 48.08286 | 0.89898 | 36031 ft | 479 kts | 44° |
| 2026-05-07 14:44 | 48.13040 | 0.97075 | 36033 ft | 492 kts | 44° |
| 2026-05-07 14:45 | 48.17812 | 1.04299 | 36018 ft | 498 kts | 44° |
| 2026-05-07 14:45 | 48.22601 | 1.11782 | 36024 ft | 496 kts | 49° |
| 2026-05-07 14:46 | 48.26962 | 1.19708 | 36021 ft | 494 kts | 51° |
| 2026-05-07 14:46 | 48.31260 | 1.27723 | 36024 ft | 492 kts | 51° |
| 2026-05-07 14:47 | 48.35571 | 1.35724 | 36018 ft | 491 kts | 50° |
| 2026-05-07 14:47 | 48.39874 | 1.43676 | 36026 ft | 490 kts | 50° |
| 2026-05-07 14:48 | 48.44183 | 1.51647 | 36043 ft | 490 kts | 50° |
| 2026-05-07 14:48 | 48.48487 | 1.59646 | 36033 ft | 491 kts | 50° |
| 2026-05-07 14:49 | 48.52785 | 1.67655 | 36034 ft | 491 kts | 50° |
| 2026-05-07 14:49 | 48.57057 | 1.75638 | 36032 ft | 491 kts | 50° |
| 2026-05-07 14:50 | 48.61348 | 1.83679 | 36034 ft | 492 kts | 50° |
| 2026-05-07 14:50 | 48.65636 | 1.91745 | 36050 ft | 492 kts | 51° |
| 2026-05-07 14:51 | 48.69917 | 1.99818 | 36049 ft | 492 kts | 51° |
| 2026-05-07 14:51 | 48.73358 | 2.06409 | 36050 ft | 492 kts | 54° |
| 2026-05-07 14:52 | 48.76846 | 2.15334 | 36046 ft | 493 kts | 65° |
| 2026-05-07 14:52 | 48.79443 | 2.24983 | 36050 ft | 493 kts | 69° |
| 2026-05-07 14:53 | 48.81952 | 2.34689 | 36051 ft | 493 kts | 68° |
| 2026-05-07 14:53 | 48.84491 | 2.44336 | 36052 ft | 493 kts | 68° |
| 2026-05-07 14:54 | 48.87051 | 2.54010 | 36047 ft | 493 kts | 68° |
| 2026-05-07 14:54 | 48.89601 | 2.63687 | 36039 ft | 493 kts | 68° |
| 2026-05-07 14:55 | 48.91989 | 2.73378 | 36047 ft | 493 kts | 71° |
| 2026-05-07 14:55 | 48.94168 | 2.83264 | 36053 ft | 493 kts | 72° |
| 2026-05-07 14:56 | 48.96336 | 2.93162 | 36049 ft | 493 kts | 71° |
| 2026-05-07 14:56 | 48.98494 | 3.02881 | 36053 ft | 493 kts | 71° |
| 2026-05-07 14:57 | 49.00696 | 3.12755 | 36054 ft | 493 kts | 71° |
| 2026-05-07 14:57 | 49.02895 | 3.22662 | 36057 ft | 493 kts | 71° |
| 2026-05-07 14:58 | 49.05071 | 3.32506 | 36060 ft | 494 kts | 71° |
| 2026-05-07 14:58 | 49.07253 | 3.42442 | 36062 ft | 493 kts | 71° |
| 2026-05-07 14:59 | 49.09422 | 3.52369 | 36060 ft | 493 kts | 71° |
| 2026-05-07 14:59 | 49.11587 | 3.62313 | 36062 ft | 493 kts | 71° |
| 2026-05-07 15:00 | 49.13737 | 3.72245 | 36067 ft | 492 kts | 72° |
| 2026-05-07 15:00 | 49.15875 | 3.82164 | 36058 ft | 492 kts | 72° |
| 2026-05-07 15:01 | 49.18003 | 3.92100 | 36058 ft | 492 kts | 72° |
| 2026-05-07 15:01 | 49.20093 | 4.01887 | 36048 ft | 492 kts | 72° |
| 2026-05-07 15:02 | 49.22197 | 4.11793 | 36063 ft | 492 kts | 72° |
| 2026-05-07 15:02 | 49.24305 | 4.21769 | 36071 ft | 492 kts | 72° |
| 2026-05-07 15:03 | 49.26382 | 4.31762 | 36067 ft | 492 kts | 73° |
| 2026-05-07 15:03 | 49.28367 | 4.41805 | 36064 ft | 492 kts | 73° |
| 2026-05-07 15:04 | 49.30328 | 4.51854 | 36055 ft | 492 kts | 73° |
| 2026-05-07 15:04 | 49.32296 | 4.61908 | 36064 ft | 492 kts | 73° |
| 2026-05-07 15:05 | 49.34244 | 4.71891 | 36054 ft | 492 kts | 73° |
| 2026-05-07 15:05 | 49.36201 | 4.81968 | 36054 ft | 492 kts | 73° |
| 2026-05-07 15:06 | 49.38147 | 4.92031 | 36051 ft | 492 kts | 73° |
| 2026-05-07 15:06 | 49.40052 | 5.01945 | 36054 ft | 492 kts | 73° |
| 2026-05-07 15:07 | 49.41965 | 5.11951 | 36064 ft | 492 kts | 73° |
| 2026-05-07 15:07 | 49.43883 | 5.22040 | 36052 ft | 491 kts | 73° |
| 2026-05-07 15:08 | 49.45790 | 5.32127 | 36051 ft | 491 kts | 73° |
| 2026-05-07 15:08 | 49.47688 | 5.42213 | 36047 ft | 491 kts | 73° |
| 2026-05-07 15:09 | 49.49577 | 5.52306 | 36054 ft | 491 kts | 74° |
| 2026-05-07 15:09 | 49.51454 | 5.62396 | 36058 ft | 491 kts | 74° |
| 2026-05-07 15:10 | 49.53327 | 5.72499 | 36047 ft | 490 kts | 74° |
| 2026-05-07 15:10 | 49.54488 | 5.77335 | 36041 ft | 488 kts | 62° |
| 2026-05-07 15:10 | 49.56332 | 5.81712 | 36053 ft | 486 kts | 49° |
| 2026-05-07 15:11 | 49.58671 | 5.85448 | 36053 ft | 484 kts | 38° |
| 2026-05-07 15:11 | 49.61413 | 5.88400 | 36065 ft | 480 kts | 31° |
| 2026-05-07 15:11 | 49.67011 | 5.93799 | 35638 ft | 471 kts | 30° |
| 2026-05-07 15:12 | 49.69774 | 5.96500 | 35193 ft | 467 kts | 31° |
| 2026-05-07 15:12 | 49.72489 | 5.99201 | 34739 ft | 463 kts | 31° |
| 2026-05-07 15:12 | 49.75088 | 6.01822 | 34306 ft | 459 kts | 31° |
| 2026-05-07 15:12 | 49.77752 | 6.04520 | 33817 ft | 456 kts | 31° |
| 2026-05-07 15:13 | 49.80396 | 6.07201 | 33287 ft | 452 kts | 31° |
| 2026-05-07 15:13 | 49.83011 | 6.09857 | 32806 ft | 448 kts | 31° |
| 2026-05-07 15:13 | 49.85571 | 6.12568 | 32336 ft | 445 kts | 35° |
| 2026-05-07 15:13 | 49.87940 | 6.15622 | 31867 ft | 442 kts | 42° |
| 2026-05-07 15:14 | 49.90108 | 6.18898 | 31405 ft | 438 kts | 43° |
| 2026-05-07 15:14 | 49.92266 | 6.22232 | 30892 ft | 438 kts | 44° |
| 2026-05-07 15:14 | 49.94431 | 6.25590 | 30412 ft | 441 kts | 44° |
| 2026-05-07 15:14 | 49.96602 | 6.28950 | 29972 ft | 441 kts | 44° |
| 2026-05-07 15:15 | 49.98777 | 6.32303 | 29591 ft | 440 kts | 43° |
| 2026-05-07 15:15 | 50.00937 | 6.35624 | 29285 ft | 437 kts | 43° |
| 2026-05-07 15:15 | 50.03093 | 6.38933 | 28981 ft | 434 kts | 43° |
| 2026-05-07 15:15 | 50.05230 | 6.42215 | 28662 ft | 431 kts | 43° |
| 2026-05-07 15:16 | 50.07363 | 6.45493 | 28262 ft | 428 kts | 43° |
| 2026-05-07 15:16 | 50.09471 | 6.48736 | 27786 ft | 424 kts | 43° |
| 2026-05-07 15:16 | 50.11563 | 6.51957 | 27290 ft | 420 kts | 43° |
| 2026-05-07 15:16 | 50.13607 | 6.55111 | 26815 ft | 417 kts | 43° |
| 2026-05-07 15:17 | 50.15666 | 6.58291 | 26359 ft | 414 kts | 44° |
| 2026-05-07 15:17 | 50.17701 | 6.61440 | 25896 ft | 411 kts | 44° |
| 2026-05-07 15:17 | 50.19723 | 6.64573 | 25437 ft | 408 kts | 44° |
| 2026-05-07 15:17 | 50.21732 | 6.67687 | 24994 ft | 406 kts | 44° |
| 2026-05-07 15:18 | 50.23732 | 6.70794 | 24534 ft | 404 kts | 44° |
| 2026-05-07 15:18 | 50.25721 | 6.73886 | 24081 ft | 402 kts | 44° |
| 2026-05-07 15:18 | 50.27697 | 6.76960 | 23631 ft | 400 kts | 44° |
| 2026-05-07 15:18 | 50.29493 | 6.80216 | 22924 ft | 397 kts | 59° |
| 2026-05-07 15:19 | 50.30423 | 6.84302 | 22089 ft | 405 kts | 87° |
| 2026-05-07 15:19 | 50.30262 | 6.88715 | 22316 ft | 414 kts | 101° |
| 2026-05-07 15:19 | 50.29526 | 6.93085 | 22386 ft | 429 kts | 109° |
| 2026-05-07 15:19 | 50.28498 | 6.97574 | 22395 ft | 448 kts | 111° |
| 2026-05-07 15:20 | 50.27386 | 7.02034 | 22055 ft | 463 kts | 112° |
| 2026-05-07 15:20 | 50.26213 | 7.06615 | 21430 ft | 440 kts | 112° |
| 2026-05-07 15:20 | 50.25105 | 7.10970 | 20806 ft | 427 kts | 112° |
| 2026-05-07 15:20 | 50.24027 | 7.15294 | 20233 ft | 427 kts | 112° |
| 2026-05-07 15:21 | 50.22960 | 7.19646 | 19654 ft | 430 kts | 111° |
| 2026-05-07 15:21 | 50.21898 | 7.24031 | 19082 ft | 432 kts | 111° |
| 2026-05-07 15:21 | 50.20838 | 7.28432 | 18513 ft | 435 kts | 111° |
| 2026-05-07 15:21 | 50.19791 | 7.32785 | 18018 ft | 434 kts | 111° |
| 2026-05-07 15:22 | 50.18730 | 7.37188 | 17457 ft | 432 kts | 111° |
| 2026-05-07 15:22 | 50.17677 | 7.41549 | 16859 ft | 427 kts | 111° |
| 2026-05-07 15:22 | 50.16634 | 7.45852 | 16306 ft | 421 kts | 111° |
| 2026-05-07 15:22 | 50.15604 | 7.50095 | 15675 ft | 417 kts | 111° |
| 2026-05-07 15:23 | 50.14580 | 7.54306 | 15046 ft | 414 kts | 111° |
| 2026-05-07 15:23 | 50.13727 | 7.58567 | 14462 ft | 410 kts | 103° |
| 2026-05-07 15:23 | 50.13240 | 7.62929 | 13924 ft | 406 kts | 96° |
| 2026-05-07 15:23 | 50.13058 | 7.67284 | 13468 ft | 399 kts | 93° |
| 2026-05-07 15:24 | 50.12887 | 7.71578 | 12931 ft | 394 kts | 94° |
| 2026-05-07 15:24 | 50.12702 | 7.75810 | 12420 ft | 389 kts | 94° |
| 2026-05-07 15:24 | 50.12512 | 7.79995 | 11891 ft | 385 kts | 94° |
| 2026-05-07 15:24 | 50.12318 | 7.84146 | 11375 ft | 382 kts | 94° |
| 2026-05-07 15:25 | 50.12123 | 7.88252 | 10842 ft | 379 kts | 94° |
| 2026-05-07 15:25 | 50.11930 | 7.92270 | 10851 ft | 365 kts | 94° |
| 2026-05-07 15:25 | 50.11735 | 7.96299 | 10957 ft | 383 kts | 94° |
| 2026-05-07 15:25 | 50.11536 | 8.00394 | 11024 ft | 391 kts | 94° |
| 2026-05-07 15:26 | 50.11329 | 8.04633 | 11037 ft | 390 kts | 94° |
| 2026-05-07 15:26 | 50.11125 | 8.08783 | 11036 ft | 388 kts | 94° |
| 2026-05-07 15:26 | 50.10918 | 8.12968 | 11046 ft | 386 kts | 94° |
| 2026-05-07 15:26 | 50.10709 | 8.17136 | 11043 ft | 385 kts | 94° |
| 2026-05-07 15:27 | 50.10501 | 8.21286 | 11045 ft | 385 kts | 94° |
| 2026-05-07 15:27 | 50.10289 | 8.25472 | 11045 ft | 385 kts | 94° |
| 2026-05-07 15:27 | 50.10076 | 8.29636 | 11045 ft | 385 kts | 94° |
| 2026-05-07 15:27 | 50.09906 | 8.33798 | 11042 ft | 384 kts | 89° |
| 2026-05-07 15:28 | 50.10113 | 8.37946 | 11023 ft | 387 kts | 80° |
| 2026-05-07 15:28 | 50.10690 | 8.41975 | 10927 ft | 384 kts | 72° |
| 2026-05-07 15:28 | 50.11595 | 8.45867 | 10823 ft | 379 kts | 68° |
| 2026-05-07 15:28 | 50.12543 | 8.49687 | 10716 ft | 376 kts | 68° |
| 2026-05-07 15:29 | 50.13479 | 8.53490 | 10624 ft | 375 kts | 68° |
| 2026-05-07 15:29 | 50.14404 | 8.57293 | 10517 ft | 374 kts | 68° |
| 2026-05-07 15:29 | 50.15315 | 8.61086 | 10428 ft | 374 kts | 69° |
| 2026-05-07 15:29 | 50.16222 | 8.64893 | 10334 ft | 373 kts | 69° |
| 2026-05-07 15:30 | 50.17123 | 8.68692 | 10234 ft | 373 kts | 69° |
| 2026-05-07 15:30 | 50.18022 | 8.72481 | 10134 ft | 373 kts | 68° |
| 2026-05-07 15:30 | 50.18919 | 8.76260 | 9949 ft | 370 kts | 69° |
| 2026-05-07 15:30 | 50.19803 | 8.80000 | 9602 ft | 363 kts | 69° |
| 2026-05-07 15:31 | 50.20651 | 8.83605 | 9280 ft | 354 kts | 69° |
| 2026-05-07 15:31 | 50.21500 | 8.87223 | 8961 ft | 347 kts | 69° |
| 2026-05-07 15:31 | 50.22315 | 8.90689 | 8632 ft | 340 kts | 69° |
| 2026-05-07 15:31 | 50.23116 | 8.94110 | 8290 ft | 326 kts | 69° |
| 2026-05-07 15:32 | 50.23868 | 8.97325 | 7760 ft | 307 kts | 69° |
| 2026-05-07 15:32 | 50.24553 | 9.00263 | 7251 ft | 291 kts | 69° |
| 2026-05-07 15:32 | 50.25232 | 9.03170 | 6746 ft | 278 kts | 68° |
| 2026-05-07 15:32 | 50.25884 | 9.05987 | 6253 ft | 276 kts | 69° |
| 2026-05-07 15:33 | 50.26310 | 9.08859 | 5710 ft | 268 kts | 89° |
| 2026-05-07 15:33 | 50.25898 | 9.11614 | 5222 ft | 254 kts | 120° |
| 2026-05-07 15:33 | 50.24695 | 9.13557 | 5054 ft | 253 kts | 153° |
| 2026-05-07 15:33 | 50.23022 | 9.14301 | 4939 ft | 252 kts | 181° |
| 2026-05-07 15:34 | 50.21341 | 9.13725 | 4552 ft | 251 kts | 211° |
| 2026-05-07 15:34 | 50.19925 | 9.12172 | 4183 ft | 248 kts | 221° |
| 2026-05-07 15:34 | 50.18623 | 9.10439 | 3996 ft | 240 kts | 224° |
| 2026-05-07 15:34 | 50.17600 | 9.08408 | 4002 ft | 241 kts | 249° |
| 2026-05-07 15:35 | 50.17079 | 9.05953 | 4002 ft | 235 kts | 253° |
| 2026-05-07 15:35 | 50.16723 | 9.04353 | 3993 ft | 235 kts | 252° |
| 2026-05-07 15:35 | 50.15974 | 9.01168 | 3984 ft | 231 kts | 251° |
| 2026-05-07 15:35 | 50.15604 | 8.99613 | 3994 ft | 230 kts | 251° |
| 2026-05-07 15:36 | 50.14857 | 8.96485 | 4007 ft | 230 kts | 251° |
| 2026-05-07 15:36 | 50.14308 | 8.94176 | 3991 ft | 230 kts | 251° |
| 2026-05-07 15:36 | 50.13752 | 8.91840 | 3993 ft | 230 kts | 251° |
| 2026-05-07 15:36 | 50.13376 | 8.90262 | 3997 ft | 230 kts | 251° |
| 2026-05-07 15:37 | 50.12822 | 8.87928 | 4010 ft | 229 kts | 252° |
| 2026-05-07 15:37 | 50.12267 | 8.85599 | 3997 ft | 227 kts | 251° |
| 2026-05-07 15:37 | 50.11737 | 8.83379 | 3978 ft | 216 kts | 251° |
| 2026-05-07 15:37 | 50.11222 | 8.81213 | 3991 ft | 211 kts | 252° |
| 2026-05-07 15:38 | 50.10703 | 8.79043 | 3993 ft | 210 kts | 252° |
| 2026-05-07 15:38 | 50.10192 | 8.76884 | 3776 ft | 216 kts | 252° |
| 2026-05-07 15:38 | 50.09679 | 8.74727 | 3519 ft | 214 kts | 252° |
| 2026-05-07 15:38 | 50.09166 | 8.72577 | 3174 ft | 206 kts | 252° |
| 2026-05-07 15:39 | 50.08678 | 8.70532 | 2861 ft | 199 kts | 251° |
| 2026-05-07 15:39 | 50.08197 | 8.68522 | 2567 ft | 196 kts | 252° |
| 2026-05-07 15:39 | 50.07740 | 8.66598 | 2333 ft | 182 kts | 251° |
| 2026-05-07 15:39 | 50.07309 | 8.64793 | 2042 ft | 175 kts | 251° |
| 2026-05-07 15:40 | 50.06886 | 8.63024 | 1782 ft | 172 kts | 252° |
| 2026-05-07 15:40 | 50.06492 | 8.61366 | 1549 ft | 155 kts | 251° |
| 2026-05-07 15:40 | 50.06122 | 8.59815 | 1336 ft | 153 kts | 251° |
| 2026-05-07 15:40 | 50.05754 | 8.58271 | 1110 ft | 150 kts | 250° |
| 2026-05-07 15:41 | 50.05394 | 8.56805 | 882 ft | 145 kts | 250° |
| 2026-05-07 15:41 | 50.05054 | 8.55344 | 669 ft | 141 kts | 250° |
| 2026-05-07 15:41 | 50.04707 | 8.53906 | 485 ft | 144 kts | 251° |
| 2026-05-07 15:41 | 50.04362 | 8.52452 | 356 ft | 136 kts | 250° |
| 2026-05-07 15:42 | 50.04092 | 8.51322 | 332 ft | 74 kts | 249° |
| 2026-05-07 15:42 | 50.03950 | 8.50728 | 328 ft | 45 kts | 250° |
| 2026-05-07 15:42 | 50.03835 | 8.50383 | 323 ft | 27 kts | 229° |